sensor_id;sensor_type;location;lat;lon;timestamp;pressure;altitude;pressure_sealevel;temperature;humidity
9225;BME280;4647;48.072;11.616;2023-03-23T00:00:09;94824.28;;;7.87;66.05
9225;BME280;4647;48.072;11.616;2023-03-23T00:02:38;94834.41;;;7.76;66.61
9225;BME280;4647;48.072;11.616;2023-03-23T00:05:09;94829.06;;;7.72;67.21
9225;BME280;4647;48.072;11.616;2023-03-23T00:07:38;94820.09;;;7.82;66.36
9225;BME280;4647;48.072;11.616;2023-03-23T00:10:11;94829.06;;;7.72;66.82
9225;BME280;4647;48.072;11.616;2023-03-23T00:12:40;94826.34;;;7.72;66.98
9225;BME280;4647;48.072;11.616;2023-03-23T00:15:10;94827.63;;;7.64;67.51
9225;BME280;4647;48.072;11.616;2023-03-23T00:17:42;94811.13;;;7.55;67.68
9225;BME280;4647;48.072;11.616;2023-03-23T00:20:13;94821.28;;;7.81;67.18
9225;BME280;4647;48.072;11.616;2023-03-23T00:22:42;94826.72;;;7.74;67.25
9225;BME280;4647;48.072;11.616;2023-03-23T00:25:10;94813.19;;;7.81;67.17
9225;BME280;4647;48.072;11.616;2023-03-23T00:27:41;94804.69;;;7.79;67.07
9225;BME280;4647;48.072;11.616;2023-03-23T00:30:11;94812.41;;;7.81;66.95
9225;BME280;4647;48.072;11.616;2023-03-23T00:32:39;94812.22;;;7.95;66.81
9225;BME280;4647;48.072;11.616;2023-03-23T00:35:08;94799.31;;;7.79;66.90
9225;BME280;4647;48.072;11.616;2023-03-23T00:37:39;94782.94;;;7.63;67.58
9225;BME280;4647;48.072;11.616;2023-03-23T00:40:10;94812.31;;;7.88;67.29
9225;BME280;4647;48.072;11.616;2023-03-23T00:42:39;94811.47;;;7.94;67.22
9225;BME280;4647;48.072;11.616;2023-03-23T00:45:09;94824.91;;;7.98;67.12
9225;BME280;4647;48.072;11.616;2023-03-23T00:47:38;94819.47;;;8.01;66.85
9225;BME280;4647;48.072;11.616;2023-03-23T00:50:12;94812.28;;;7.91;67.60
9225;BME280;4647;48.072;11.616;2023-03-23T00:52:45;94820.81;;;7.86;67.66
9225;BME280;4647;48.072;11.616;2023-03-23T00:55:17;94804.63;;;7.86;67.83
9225;BME280;4647;48.072;11.616;2023-03-23T00:57:46;94810.78;;;7.87;67.99
9225;BME280;4647;48.072;11.616;2023-03-23T01:00:16;94795.66;;;7.96;67.48
9225;BME280;4647;48.072;11.616;2023-03-23T01:02:44;94809.50;;;7.98;67.96
9225;BME280;4647;48.072;11.616;2023-03-23T01:05:13;94774.72;;;7.74;67.86
9225;BME280;4647;48.072;11.616;2023-03-23T01:07:45;94802.22;;;7.95;68.00
9225;BME280;4647;48.072;11.616;2023-03-23T01:10:14;94806.53;;;7.89;68.17
9225;BME280;4647;48.072;11.616;2023-03-23T01:12:44;94806.16;;;7.87;68.53
9225;BME280;4647;48.072;11.616;2023-03-23T01:15:14;94793.50;;;7.84;68.56
9225;BME280;4647;48.072;11.616;2023-03-23T01:17:43;94789.88;;;7.94;68.52
9225;BME280;4647;48.072;11.616;2023-03-23T01:20:13;94792.13;;;7.99;68.27
9225;BME280;4647;48.072;11.616;2023-03-23T01:22:45;94798.66;;;8.02;68.27
9225;BME280;4647;48.072;11.616;2023-03-23T01:25:14;94791.38;;;7.99;68.43
9225;BME280;4647;48.072;11.616;2023-03-23T01:27:42;94793.63;;;8.04;68.28
9225;BME280;4647;48.072;11.616;2023-03-23T01:30:12;94775.22;;;7.95;68.42
9225;BME280;4647;48.072;11.616;2023-03-23T01:32:40;94782.88;;;8.00;68.45
9225;BME280;4647;48.072;11.616;2023-03-23T01:35:09;94785.50;;;8.08;68.36
9225;BME280;4647;48.072;11.616;2023-03-23T01:37:37;94742.25;;;7.84;68.17
9225;BME280;4647;48.072;11.616;2023-03-23T01:40:10;94782.69;;;8.15;68.07
9225;BME280;4647;48.072;11.616;2023-03-23T01:42:39;94777.16;;;8.25;67.72
9225;BME280;4647;48.072;11.616;2023-03-23T01:45:27;94787.06;;;8.36;67.47
9225;BME280;4647;48.072;11.616;2023-03-23T01:48:07;94780.81;;;8.42;67.25
9225;BME280;4647;48.072;11.616;2023-03-23T01:50:41;94772.16;;;8.24;67.76
9225;BME280;4647;48.072;11.616;2023-03-23T01:53:13;94781.69;;;8.36;67.33
9225;BME280;4647;48.072;11.616;2023-03-23T01:55:44;94781.63;;;8.39;67.49
9225;BME280;4647;48.072;11.616;2023-03-23T01:58:17;94765.94;;;8.27;67.08
9225;BME280;4647;48.072;11.616;2023-03-23T02:00:51;94777.00;;;8.40;67.25
9225;BME280;4647;48.072;11.616;2023-03-23T02:03:20;94787.84;;;8.36;67.52
9225;BME280;4647;48.072;11.616;2023-03-23T02:05:49;94778.88;;;8.43;66.87
9225;BME280;4647;48.072;11.616;2023-03-23T02:08:20;94779.00;;;8.32;67.48
9225;BME280;4647;48.072;11.616;2023-03-23T02:10:51;94781.31;;;8.34;67.45
9225;BME280;4647;48.072;11.616;2023-03-23T02:13:20;94781.34;;;8.30;67.56
9225;BME280;4647;48.072;11.616;2023-03-23T02:15:55;94780.16;;;8.35;67.47
9225;BME280;4647;48.072;11.616;2023-03-23T02:18:46;94784.78;;;8.34;67.52
9225;BME280;4647;48.072;11.616;2023-03-23T02:21:46;94778.66;;;8.30;67.84
9225;BME280;4647;48.072;11.616;2023-03-23T02:27:19;94776.31;;;8.32;67.75
9225;BME280;4647;48.072;11.616;2023-03-23T02:29:56;94777.25;;;8.18;68.53
9225;BME280;4647;48.072;11.616;2023-03-23T02:32:50;94775.31;;;8.19;68.71
9225;BME280;4647;48.072;11.616;2023-03-23T02:35:27;94778.72;;;8.23;68.16
9225;BME280;4647;48.072;11.616;2023-03-23T02:37:59;94768.84;;;8.13;68.49
9225;BME280;4647;48.072;11.616;2023-03-23T02:40:32;94742.31;;;7.81;68.46
9225;BME280;4647;48.072;11.616;2023-03-23T02:43:02;94775.88;;;8.07;68.88
9225;BME280;4647;48.072;11.616;2023-03-23T02:45:36;94767.38;;;8.08;68.76
9225;BME280;4647;48.072;11.616;2023-03-23T02:48:06;94771.31;;;8.00;69.11
9225;BME280;4647;48.072;11.616;2023-03-23T02:50:40;94771.25;;;8.04;69.15
9225;BME280;4647;48.072;11.616;2023-03-23T02:53:13;94765.09;;;8.03;69.22
9225;BME280;4647;48.072;11.616;2023-03-23T02:55:44;94768.22;;;8.01;69.64
9225;BME280;4647;48.072;11.616;2023-03-23T02:58:14;94771.25;;;8.04;69.63
9225;BME280;4647;48.072;11.616;2023-03-23T03:00:44;94771.25;;;8.04;69.28
9225;BME280;4647;48.072;11.616;2023-03-23T03:03:16;94770.91;;;8.01;69.34
9225;BME280;4647;48.072;11.616;2023-03-23T03:05:57;94770.59;;;7.96;69.53
9225;BME280;4647;48.072;11.616;2023-03-23T03:08:34;94767.25;;;7.88;69.94
9225;BME280;4647;48.072;11.616;2023-03-23T03:11:07;94760.78;;;7.82;69.62
9225;BME280;4647;48.072;11.616;2023-03-23T03:13:45;94770.09;;;7.74;70.15
9225;BME280;4647;48.072;11.616;2023-03-23T03:16:23;94768.47;;;7.80;70.15
9225;BME280;4647;48.072;11.616;2023-03-23T03:18:56;94770.09;;;7.74;70.52
9225;BME280;4647;48.072;11.616;2023-03-23T03:21:30;94760.78;;;7.79;70.47
9225;BME280;4647;48.072;11.616;2023-03-23T03:24:01;94767.75;;;7.76;70.57
9225;BME280;4647;48.072;11.616;2023-03-23T03:26:34;94764.63;;;7.81;70.45
9225;BME280;4647;48.072;11.616;2023-03-23T03:29:03;94728.81;;;7.47;70.85
9225;BME280;4647;48.072;11.616;2023-03-23T03:31:35;94765.06;;;7.76;70.74
9225;BME280;4647;48.072;11.616;2023-03-23T03:34:06;94759.13;;;7.58;71.06
9225;BME280;4647;48.072;11.616;2023-03-23T03:36:38;94762.78;;;7.75;70.64
9225;BME280;4647;48.072;11.616;2023-03-23T03:39:08;94759.09;;;7.61;71.01
9225;BME280;4647;48.072;11.616;2023-03-23T03:41:38;94763.66;;;7.64;70.85
9225;BME280;4647;48.072;11.616;2023-03-23T03:44:07;94771.22;;;7.77;70.53
9225;BME280;4647;48.072;11.616;2023-03-23T03:46:37;94750.97;;;7.65;70.49
9225;BME280;4647;48.072;11.616;2023-03-23T03:49:07;94753.19;;;7.70;70.33
9225;BME280;4647;48.072;11.616;2023-03-23T03:51:40;94774.69;;;7.77;70.38
9225;BME280;4647;48.072;11.616;2023-03-23T03:54:08;94784.75;;;7.73;70.44
9225;BME280;4647;48.072;11.616;2023-03-23T03:56:37;94781.28;;;7.73;70.52
9225;BME280;4647;48.072;11.616;2023-03-23T03:59:06;94772.75;;;7.78;70.07
9225;BME280;4647;48.072;11.616;2023-03-23T04:01:36;94777.31;;;7.84;70.24
9225;BME280;4647;48.072;11.616;2023-03-23T04:04:05;94769.94;;;7.88;69.67
9225;BME280;4647;48.072;11.616;2023-03-23T04:06:34;94786.38;;;7.97;69.39
9225;BME280;4647;48.072;11.616;2023-03-23T04:09:06;94793.72;;;7.97;69.44
9225;BME280;4647;48.072;11.616;2023-03-23T04:11:35;94784.84;;;7.96;69.28
9225;BME280;4647;48.072;11.616;2023-03-23T04:14:03;94773.19;;;8.03;69.02
9225;BME280;4647;48.072;11.616;2023-03-23T04:16:32;94776.19;;;8.12;68.88
9225;BME280;4647;48.072;11.616;2023-03-23T04:19:01;94773.78;;;8.18;68.84
9225;BME280;4647;48.072;11.616;2023-03-23T04:21:30;94778.38;;;8.21;68.63
9225;BME280;4647;48.072;11.616;2023-03-23T04:23:59;94785.28;;;8.22;68.63
9225;BME280;4647;48.072;11.616;2023-03-23T04:26:31;94785.94;;;8.02;69.05
9225;BME280;4647;48.072;11.616;2023-03-23T04:28:59;94789.44;;;7.99;69.12
9225;BME280;4647;48.072;11.616;2023-03-23T04:31:28;94792.13;;;7.99;69.29
9225;BME280;4647;48.072;11.616;2023-03-23T04:33:57;94793.31;;;7.98;69.10
9225;BME280;4647;48.072;11.616;2023-03-23T04:36:26;94794.00;;;8.06;69.21
9225;BME280;4647;48.072;11.616;2023-03-23T04:38:55;94793.66;;;8.00;68.88
9225;BME280;4647;48.072;11.616;2023-03-23T04:41:26;94805.56;;;8.03;69.37
9225;BME280;4647;48.072;11.616;2023-03-23T04:43:57;94804.34;;;8.11;68.94
9225;BME280;4647;48.072;11.616;2023-03-23T04:46:28;94795.94;;;8.06;68.68
9225;BME280;4647;48.072;11.616;2023-03-23T04:48:57;94798.13;;;8.14;68.86
9225;BME280;4647;48.072;11.616;2023-03-23T04:51:26;94805.75;;;8.19;68.57
9225;BME280;4647;48.072;11.616;2023-03-23T04:53:57;94801.41;;;8.29;68.14
9225;BME280;4647;48.072;11.616;2023-03-23T04:56:25;94799.84;;;8.28;68.36
9225;BME280;4647;48.072;11.616;2023-03-23T04:58:56;94801.69;;;8.38;67.89
9225;BME280;4647;48.072;11.616;2023-03-23T05:01:26;94801.94;;;8.47;67.96
9225;BME280;4647;48.072;11.616;2023-03-23T05:03:54;94803.06;;;8.50;67.72
9225;BME280;4647;48.072;11.616;2023-03-23T05:06:23;94814.63;;;8.50;67.53
9225;BME280;4647;48.072;11.616;2023-03-23T05:08:51;94813.91;;;8.46;67.81
9225;BME280;4647;48.072;11.616;2023-03-23T05:11:20;94809.69;;;8.45;67.89
9225;BME280;4647;48.072;11.616;2023-03-23T05:13:48;94816.88;;;8.55;67.49
9225;BME280;4647;48.072;11.616;2023-03-23T05:16:19;94802.41;;;8.42;67.84
9225;BME280;4647;48.072;11.616;2023-03-23T05:18:48;94807.34;;;8.47;68.19
9225;BME280;4647;48.072;11.616;2023-03-23T05:21:16;94798.47;;;8.47;68.10
9225;BME280;4647;48.072;11.616;2023-03-23T05:23:44;94800.88;;;8.41;68.54
9225;BME280;4647;48.072;11.616;2023-03-23T05:26:20;94803.53;;;8.45;68.25
9225;BME280;4647;48.072;11.616;2023-03-23T05:28:49;94815.31;;;8.58;68.06
9225;BME280;4647;48.072;11.616;2023-03-23T05:31:21;94816.66;;;8.70;67.32
9225;BME280;4647;48.072;11.616;2023-03-23T05:33:50;94829.34;;;8.73;66.79
9225;BME280;4647;48.072;11.616;2023-03-23T05:36:18;94822.16;;;8.89;66.47
9225;BME280;4647;48.072;11.616;2023-03-23T05:38:48;94832.09;;;8.96;65.92
9225;BME280;4647;48.072;11.616;2023-03-23T05:41:17;94833.53;;;9.04;65.87
9225;BME280;4647;48.072;11.616;2023-03-23T05:43:46;94836.16;;;9.08;65.68
9225;BME280;4647;48.072;11.616;2023-03-23T05:46:14;94835.97;;;9.18;65.40
9225;BME280;4647;48.072;11.616;2023-03-23T05:48:46;94832.81;;;9.23;65.05
9225;BME280;4647;48.072;11.616;2023-03-23T05:51:14;94841.94;;;9.33;64.83
9225;BME280;4647;48.072;11.616;2023-03-23T05:53:44;94834.88;;;9.39;64.43
9225;BME280;4647;48.072;11.616;2023-03-23T05:56:12;94828.97;;;9.44;64.30
9225;BME280;4647;48.072;11.616;2023-03-23T05:58:41;94825.56;;;9.40;64.51
9225;BME280;4647;48.072;11.616;2023-03-23T06:01:09;94806.25;;;9.18;65.89
9225;BME280;4647;48.072;11.616;2023-03-23T06:03:39;94813.25;;;9.16;66.15
9225;BME280;4647;48.072;11.616;2023-03-23T06:06:12;94815.78;;;9.03;66.78
9225;BME280;4647;48.072;11.616;2023-03-23T06:08:40;94797.97;;;8.82;67.81
9225;BME280;4647;48.072;11.616;2023-03-23T06:11:10;94755.03;;;8.65;67.44
9225;BME280;4647;48.072;11.616;2023-03-23T06:13:38;94786.97;;;8.93;67.16
9225;BME280;4647;48.072;11.616;2023-03-23T06:16:08;94790.44;;;9.17;65.80
9225;BME280;4647;48.072;11.616;2023-03-23T06:18:36;94786.47;;;9.25;65.63
9225;BME280;4647;48.072;11.616;2023-03-23T06:21:06;94787.31;;;9.42;64.87
9225;BME280;4647;48.072;11.616;2023-03-23T06:23:37;94790.03;;;9.62;64.30
9225;BME280;4647;48.072;11.616;2023-03-23T06:26:07;94795.66;;;9.91;63.30
9225;BME280;4647;48.072;11.616;2023-03-23T06:28:39;94805.56;;;10.17;62.72
9225;BME280;4647;48.072;11.616;2023-03-23T06:31:08;94796.84;;;10.29;62.13
9225;BME280;4647;48.072;11.616;2023-03-23T06:33:37;94816.53;;;10.50;61.67
9225;BME280;4647;48.072;11.616;2023-03-23T06:36:07;94816.28;;;10.60;61.18
9225;BME280;4647;48.072;11.616;2023-03-23T06:38:42;94830.13;;;10.66;61.11
9225;BME280;4647;48.072;11.616;2023-03-23T06:41:11;94809.22;;;10.66;60.66
9225;BME280;4647;48.072;11.616;2023-03-23T06:43:39;94828.81;;;10.90;60.58
9225;BME280;4647;48.072;11.616;2023-03-23T06:46:09;94810.16;;;10.76;60.41
9225;BME280;4647;48.072;11.616;2023-03-23T06:48:38;94808.28;;;10.73;60.85
9225;BME280;4647;48.072;11.616;2023-03-23T06:51:06;94808.13;;;10.80;60.81
9225;BME280;4647;48.072;11.616;2023-03-23T06:53:35;94798.38;;;10.99;60.24
9225;BME280;4647;48.072;11.616;2023-03-23T06:56:07;94797.97;;;11.00;60.22
9225;BME280;4647;48.072;11.616;2023-03-23T06:58:37;94798.63;;;10.88;60.44
9225;BME280;4647;48.072;11.616;2023-03-23T07:01:07;94783.78;;;10.60;61.45
9225;BME280;4647;48.072;11.616;2023-03-23T07:03:36;94797.09;;;10.71;60.91
9225;BME280;4647;48.072;11.616;2023-03-23T07:06:07;94783.56;;;10.71;61.09
9225;BME280;4647;48.072;11.616;2023-03-23T07:08:35;94777.97;;;10.78;60.78
9225;BME280;4647;48.072;11.616;2023-03-23T07:11:07;94780.84;;;10.71;61.08
9225;BME280;4647;48.072;11.616;2023-03-23T07:13:36;94775.41;;;10.87;60.63
9225;BME280;4647;48.072;11.616;2023-03-23T07:16:06;94792.44;;;11.04;60.93
9225;BME280;4647;48.072;11.616;2023-03-23T07:18:34;94773.03;;;11.22;60.28
9225;BME280;4647;48.072;11.616;2023-03-23T07:21:03;94784.41;;;11.17;60.12
9225;BME280;4647;48.072;11.616;2023-03-23T07:23:32;94782.50;;;11.30;59.37
9225;BME280;4647;48.072;11.616;2023-03-23T07:26:01;94777.19;;;11.72;58.90
9225;BME280;4647;48.072;11.616;2023-03-23T07:28:32;94787.28;;;12.00;57.69
9225;BME280;4647;48.072;11.616;2023-03-23T07:31:02;94781.50;;;12.65;55.96
9225;BME280;4647;48.072;11.616;2023-03-23T07:33:30;94789.22;;;13.05;55.00
9225;BME280;4647;48.072;11.616;2023-03-23T07:35:59;94796.69;;;13.39;53.99
9225;BME280;4647;48.072;11.616;2023-03-23T07:38:28;94800.56;;;13.50;53.58
9225;BME280;4647;48.072;11.616;2023-03-23T07:40:56;94793.75;;;13.68;53.25
9225;BME280;4647;48.072;11.616;2023-03-23T07:43:25;94797.66;;;14.01;52.69
9225;BME280;4647;48.072;11.616;2023-03-23T07:45:56;94787.69;;;14.07;51.94
9225;BME280;4647;48.072;11.616;2023-03-23T07:48:24;94788.88;;;13.63;53.29
9225;BME280;4647;48.072;11.616;2023-03-23T07:50:53;94787.66;;;13.98;52.43
9225;BME280;4647;48.072;11.616;2023-03-23T07:53:21;94788.75;;;13.66;54.06
9225;BME280;4647;48.072;11.616;2023-03-23T07:55:50;94785.78;;;13.51;54.31
9225;BME280;4647;48.072;11.616;2023-03-23T07:58:19;94783.44;;;13.63;53.33
9225;BME280;4647;48.072;11.616;2023-03-23T08:00:47;94790.09;;;13.83;52.92
9225;BME280;4647;48.072;11.616;2023-03-23T08:03:20;94782.38;;;14.48;51.39
9225;BME280;4647;48.072;11.616;2023-03-23T08:05:49;94773.09;;;14.76;51.13
9225;BME280;4647;48.072;11.616;2023-03-23T08:08:17;94783.78;;;14.61;50.86
9225;BME280;4647;48.072;11.616;2023-03-23T08:10:47;94775.16;;;14.63;50.47
9225;BME280;4647;48.072;11.616;2023-03-23T08:13:15;94778.69;;;14.72;50.38
9225;BME280;4647;48.072;11.616;2023-03-23T08:15:44;94785.00;;;15.00;49.62
9225;BME280;4647;48.072;11.616;2023-03-23T08:18:12;94780.56;;;15.43;49.25
9225;BME280;4647;48.072;11.616;2023-03-23T08:20:43;94783.63;;;14.96;49.65
9225;BME280;4647;48.072;11.616;2023-03-23T08:23:14;94773.19;;;15.62;48.70
9225;BME280;4647;48.072;11.616;2023-03-23T08:25:43;94783.19;;;15.65;48.28
9225;BME280;4647;48.072;11.616;2023-03-23T08:28:11;94782.22;;;15.50;48.52
9225;BME280;4647;48.072;11.616;2023-03-23T08:30:41;94778.91;;;15.55;48.16
9225;BME280;4647;48.072;11.616;2023-03-23T08:33:09;94786.59;;;15.29;48.54
9225;BME280;4647;48.072;11.616;2023-03-23T08:35:39;94788.56;;;15.28;49.40
9225;BME280;4647;48.072;11.616;2023-03-23T08:38:11;94796.78;;;15.47;49.28
9225;BME280;4647;48.072;11.616;2023-03-23T08:40:40;94795.91;;;15.59;48.62
9225;BME280;4647;48.072;11.616;2023-03-23T08:43:09;94783.66;;;15.73;48.32
9225;BME280;4647;48.072;11.616;2023-03-23T08:45:37;94796.69;;;16.05;48.16
9225;BME280;4647;48.072;11.616;2023-03-23T08:48:07;94788.84;;;16.58;46.51
9225;BME280;4647;48.072;11.616;2023-03-23T08:50:36;94789.53;;;16.08;48.08
9225;BME280;4647;48.072;11.616;2023-03-23T08:53:05;94796.38;;;16.21;47.77
9225;BME280;4647;48.072;11.616;2023-03-23T08:55:36;94786.59;;;16.48;46.96
9225;BME280;4647;48.072;11.616;2023-03-23T08:58:05;94782.84;;;16.87;45.96
9225;BME280;4647;48.072;11.616;2023-03-23T09:00:34;94788.78;;;17.19;45.86
9225;BME280;4647;48.072;11.616;2023-03-23T09:03:02;94795.16;;;17.73;44.51
9225;BME280;4647;48.072;11.616;2023-03-23T09:05:31;94802.28;;;17.79;44.17
9225;BME280;4647;48.072;11.616;2023-03-23T09:07:59;94791.97;;;17.17;45.13
9225;BME280;4647;48.072;11.616;2023-03-23T09:10:29;94791.00;;;17.54;44.77
9225;BME280;4647;48.072;11.616;2023-03-23T09:13:00;94796.97;;;17.19;45.14
9225;BME280;4647;48.072;11.616;2023-03-23T09:15:29;94799.44;;;17.41;45.31
9225;BME280;4647;48.072;11.616;2023-03-23T09:17:58;94799.75;;;17.91;42.44
9225;BME280;4647;48.072;11.616;2023-03-23T09:20:28;94820.16;;;18.28;42.23
9225;BME280;4647;48.072;11.616;2023-03-23T09:22:57;94832.88;;;18.17;41.45
9225;BME280;4647;48.072;11.616;2023-03-23T09:25:27;94837.31;;;18.14;40.82
9225;BME280;4647;48.072;11.616;2023-03-23T09:27:57;94851.72;;;17.85;44.31
9225;BME280;4647;48.072;11.616;2023-03-23T09:30:30;94841.75;;;17.07;45.85
9225;BME280;4647;48.072;11.616;2023-03-23T09:33:00;94858.66;;;17.05;45.70
9225;BME280;4647;48.072;11.616;2023-03-23T09:35:29;94861.63;;;17.49;44.25
9225;BME280;4647;48.072;11.616;2023-03-23T09:38:00;94861.22;;;17.75;43.61
9225;BME280;4647;48.072;11.616;2023-03-23T09:40:33;94853.59;;;18.18;43.09
9225;BME280;4647;48.072;11.616;2023-03-23T09:43:27;94868.53;;;18.17;40.62
9225;BME280;4647;48.072;11.616;2023-03-23T09:46:10;94864.28;;;17.92;40.55
9225;BME280;4647;48.072;11.616;2023-03-23T09:48:47;94866.81;;;17.81;40.29
9225;BME280;4647;48.072;11.616;2023-03-23T09:51:26;94844.94;;;17.71;40.32
9225;BME280;4647;48.072;11.616;2023-03-23T09:54:02;94859.88;;;17.70;40.11
9225;BME280;4647;48.072;11.616;2023-03-23T09:56:33;94851.09;;;17.57;40.32
9225;BME280;4647;48.072;11.616;2023-03-23T09:59:08;94848.81;;;18.27;39.59
9225;BME280;4647;48.072;11.616;2023-03-23T10:01:44;94849.91;;;19.04;38.46
9225;BME280;4647;48.072;11.616;2023-03-23T10:04:21;94847.63;;;19.52;36.72
9225;BME280;4647;48.072;11.616;2023-03-23T10:06:56;94836.47;;;19.76;35.53
9225;BME280;4647;48.072;11.616;2023-03-23T10:09:27;94843.91;;;19.70;35.91
9225;BME280;4647;48.072;11.616;2023-03-23T10:12:04;94846.84;;;20.27;35.34
9225;BME280;4647;48.072;11.616;2023-03-23T10:14:44;94837.63;;;20.30;34.97
9225;BME280;4647;48.072;11.616;2023-03-23T10:17:22;94857.72;;;20.16;34.62
9225;BME280;4647;48.072;11.616;2023-03-23T10:19:57;94857.56;;;19.84;34.90
9225;BME280;4647;48.072;11.616;2023-03-23T10:22:32;94827.53;;;19.60;35.76
9225;BME280;4647;48.072;11.616;2023-03-23T10:25:14;94863.53;;;19.62;35.58
9225;BME280;4647;48.072;11.616;2023-03-23T10:27:45;94838.56;;;19.31;36.66
9225;BME280;4647;48.072;11.616;2023-03-23T10:30:21;94858.00;;;19.27;36.90
9225;BME280;4647;48.072;11.616;2023-03-23T10:32:56;94844.75;;;19.26;36.87
9225;BME280;4647;48.072;11.616;2023-03-23T10:35:29;94866.78;;;19.46;37.19
9225;BME280;4647;48.072;11.616;2023-03-23T10:38:03;94840.22;;;19.23;37.43
9225;BME280;4647;48.072;11.616;2023-03-23T10:40:46;94872.50;;;19.28;37.41
9225;BME280;4647;48.072;11.616;2023-03-23T10:43:17;94881.22;;;19.26;37.10
9225;BME280;4647;48.072;11.616;2023-03-23T10:45:50;94885.22;;;18.96;37.83
9225;BME280;4647;48.072;11.616;2023-03-23T10:48:28;94875.84;;;19.02;38.41
9225;BME280;4647;48.072;11.616;2023-03-23T10:51:00;94872.78;;;19.30;37.56
9225;BME280;4647;48.072;11.616;2023-03-23T10:53:32;94863.06;;;19.49;37.21
9225;BME280;4647;48.072;11.616;2023-03-23T10:56:04;94866.84;;;19.67;36.74
9225;BME280;4647;48.072;11.616;2023-03-23T10:58:35;94866.28;;;19.62;37.27
9225;BME280;4647;48.072;11.616;2023-03-23T11:01:04;94863.00;;;19.79;37.07
9225;BME280;4647;48.072;11.616;2023-03-23T11:03:45;94861.66;;;19.89;36.47
9225;BME280;4647;48.072;11.616;2023-03-23T11:06:20;94860.69;;;19.92;36.54
9225;BME280;4647;48.072;11.616;2023-03-23T11:08:52;94867.97;;;20.15;36.27
9225;BME280;4647;48.072;11.616;2023-03-23T11:11:26;94861.09;;;20.46;35.43
9225;BME280;4647;48.072;11.616;2023-03-23T11:13:59;94863.81;;;20.26;35.58
9225;BME280;4647;48.072;11.616;2023-03-23T11:16:30;94853.03;;;20.42;35.04
9225;BME280;4647;48.072;11.616;2023-03-23T11:19:11;94876.63;;;20.29;35.34
9225;BME280;4647;48.072;11.616;2023-03-23T11:21:45;94876.81;;;20.25;34.61
9225;BME280;4647;48.072;11.616;2023-03-23T11:24:15;94873.47;;;20.15;35.31
9225;BME280;4647;48.072;11.616;2023-03-23T11:26:45;94876.63;;;20.29;35.27
9225;BME280;4647;48.072;11.616;2023-03-23T11:29:16;94869.34;;;20.72;34.26
9225;BME280;4647;48.072;11.616;2023-03-23T11:31:49;94859.03;;;20.67;34.10
9225;BME280;4647;48.072;11.616;2023-03-23T11:34:24;94855.41;;;20.55;34.60
9225;BME280;4647;48.072;11.616;2023-03-23T11:36:57;94856.91;;;20.56;33.17
9225;BME280;4647;48.072;11.616;2023-03-23T11:39:27;94863.56;;;20.44;33.20
9225;BME280;4647;48.072;11.616;2023-03-23T11:41:58;94850.78;;;20.93;32.69
9225;BME280;4647;48.072;11.616;2023-03-23T11:44:33;94848.19;;;21.15;32.24
9225;BME280;4647;48.072;11.616;2023-03-23T11:47:07;94821.53;;;21.01;32.67
9225;BME280;4647;48.072;11.616;2023-03-23T11:49:49;94841.53;;;21.27;32.14
9225;BME280;4647;48.072;11.616;2023-03-23T11:52:25;94841.06;;;21.03;32.38
9225;BME280;4647;48.072;11.616;2023-03-23T11:55:01;94842.94;;;20.13;33.55
9225;BME280;4647;48.072;11.616;2023-03-23T11:57:32;94824.53;;;20.71;33.12
9225;BME280;4647;48.072;11.616;2023-03-23T12:00:01;94852.00;;;20.92;32.57
9225;BME280;4647;48.072;11.616;2023-03-23T12:05:38;94841.59;;;21.33;32.80
9225;BME280;4647;48.072;11.616;2023-03-23T12:08:25;94845.19;;;21.13;32.83
9225;BME280;4647;48.072;11.616;2023-03-23T12:11:01;94840.97;;;20.60;33.72
9225;BME280;4647;48.072;11.616;2023-03-23T12:13:52;94836.47;;;21.20;31.86
9225;BME280;4647;48.072;11.616;2023-03-23T12:16:31;94825.41;;;21.52;30.81
9225;BME280;4647;48.072;11.616;2023-03-23T12:19:11;94824.09;;;21.84;30.51
9225;BME280;4647;48.072;11.616;2023-03-23T12:21:55;94833.41;;;21.92;30.81
9225;BME280;4647;48.072;11.616;2023-03-23T12:24:37;94825.56;;;22.28;30.73
9225;BME280;4647;48.072;11.616;2023-03-23T12:27:15;94814.59;;;22.73;29.60
9225;BME280;4647;48.072;11.616;2023-03-23T12:30:02;94801.16;;;22.15;29.31
9225;BME280;4647;48.072;11.616;2023-03-23T12:32:42;94820.09;;;21.85;29.43
9225;BME280;4647;48.072;11.616;2023-03-23T12:35:22;94821.22;;;21.62;29.75
9225;BME280;4647;48.072;11.616;2023-03-23T12:38:06;94826.47;;;21.60;29.89
9225;BME280;4647;48.072;11.616;2023-03-23T12:40:54;94832.28;;;20.67;30.52
9225;BME280;4647;48.072;11.616;2023-03-23T12:43:31;94820.59;;;20.52;31.08
9225;BME280;4647;48.072;11.616;2023-03-23T12:46:15;94825.59;;;20.79;31.30
9225;BME280;4647;48.072;11.616;2023-03-23T12:48:49;94819.03;;;20.71;31.82
9225;BME280;4647;48.072;11.616;2023-03-23T12:51:24;94807.00;;;20.69;32.11
9225;BME280;4647;48.072;11.616;2023-03-23T12:54:03;94799.94;;;20.62;31.85
9225;BME280;4647;48.072;11.616;2023-03-23T12:56:40;94807.50;;;20.67;30.96
9225;BME280;4647;48.072;11.616;2023-03-23T12:59:16;94803.69;;;20.39;31.64
9225;BME280;4647;48.072;11.616;2023-03-23T13:01:52;94763.66;;;20.12;31.33
9225;BME280;4647;48.072;11.616;2023-03-23T13:04:26;94800.16;;;20.59;30.54
9225;BME280;4647;48.072;11.616;2023-03-23T13:07:01;94797.47;;;20.64;30.17
9225;BME280;4647;48.072;11.616;2023-03-23T13:09:39;94772.28;;;20.25;30.15
9225;BME280;4647;48.072;11.616;2023-03-23T13:12:10;94764.00;;;19.38;31.01
9225;BME280;4647;48.072;11.616;2023-03-23T13:14:45;94806.13;;;19.15;31.65
9225;BME280;4647;48.072;11.616;2023-03-23T13:17:28;94800.59;;;19.29;30.92
9225;BME280;4647;48.072;11.616;2023-03-23T13:20:19;94799.13;;;19.14;31.04
9225;BME280;4647;48.072;11.616;2023-03-23T13:22:56;94786.66;;;19.33;31.54
9225;BME280;4647;48.072;11.616;2023-03-23T13:25:42;94804.13;;;19.50;31.27
9225;BME280;4647;48.072;11.616;2023-03-23T13:28:15;94793.03;;;19.24;32.13
9225;BME280;4647;48.072;11.616;2023-03-23T13:31:01;94806.22;;;19.20;31.60
9225;BME280;4647;48.072;11.616;2023-03-23T13:33:32;94789.78;;;19.06;31.59
9225;BME280;4647;48.072;11.616;2023-03-23T13:36:05;94793.59;;;18.93;32.71
9225;BME280;4647;48.072;11.616;2023-03-23T13:38:36;94793.59;;;18.93;32.02
9225;BME280;4647;48.072;11.616;2023-03-23T13:41:13;94785.50;;;19.05;32.54
9225;BME280;4647;48.072;11.616;2023-03-23T13:43:44;94763.94;;;18.97;32.06
9225;BME280;4647;48.072;11.616;2023-03-23T13:46:25;94788.41;;;19.51;32.10